»·PEaware :: N179TD KBUR-KLAS

N179TD :: KBUR-KLAS

FLIGHT INFORMATION

Flight Status: Arrived
Operator: Privately registered:
United States
More flights under this callsign
Pilot: Terry D. (17346)
Aircraft: CESSNA 208 CARAVAN
(C208)
More flights by this aircraft type
Origin: KBUR Bob Hope-Burbank
United States
Destination: KLAS McCarran Intl
United States
More flights between these airports :: More routes between these airports
Route: +VNY3 DAG CRESO4
File this flight plan on PilotEdge
Remarks:
Altitude:
(Current/Filed)
11,000ft
Speed:
(Current/Filed)
175kts
Departed: 05-Jan-18 12:25 PM
Arrived: 05-Jan-18 01:49 PM
Distance/Time
Traveled:
193nm/1:24
Distance/Time
To Go:
Arrived

Flight Plot

Page will automatically refresh every two minutes.

Flight plan parsing failed; only flown route is shown


Map Options




Map Legend


Flown Route
Filed Route
Departure Airport
Arrival Airport
Navaid (VOR, NDB)
Fix

Horizontal Profiles

Position Reports

Time Latitude Longitude Heading Altitude Ground
Speed
05-Jan-18 12:09 34.200203 -118.358745 263 722ft 0kts
05-Jan-18 12:10 34.200203 -118.358745 263 722ft 0kts
05-Jan-18 12:11 34.200203 -118.358745 263 722ft 0kts
05-Jan-18 12:12 34.200203 -118.358745 263 722ft 0kts
05-Jan-18 12:13 34.200203 -118.358745 263 722ft 0kts
05-Jan-18 12:14 34.200203 -118.358745 263 722ft 0kts
05-Jan-18 12:15 34.200203 -118.358745 263 722ft 0kts
05-Jan-18 12:16 34.200203 -118.358745 263 722ft 0kts
05-Jan-18 12:17 34.200203 -118.358745 263 722ft 0kts
05-Jan-18 12:18 34.200203 -118.358745 263 722ft 0kts
05-Jan-18 12:19 34.200203 -118.358745 263 722ft 0kts
05-Jan-18 12:20 34.200203 -118.358745 263 722ft 0kts
05-Jan-18 12:21 34.200203 -118.358745 263 722ft 0kts
05-Jan-18 12:22 34.200198 -118.358796 264 722ft 0kts
05-Jan-18 12:23 34.200973 -118.358473 349 725ft 2kts
05-Jan-18 12:24 34.203332 -118.359146 345 735ft 9kts
05-Jan-18 12:25 34.206169 -118.359909 347 744ft 11kts
05-Jan-18 12:26 34.208869 -118.360652 345 757ft 8kts
05-Jan-18 12:27 34.210612 -118.361114 346 767ft 6kts
05-Jan-18 12:28 34.211755 -118.361297 31 769ft 0kts
05-Jan-18 12:29 34.211755 -118.361297 31 769ft 0kts
05-Jan-18 12:30 34.211865 -118.361153 57 769ft 5kts
05-Jan-18 12:31 34.205858 -118.358619 166 750ft 90kts
05-Jan-18 12:32 34.189185 -118.359292 228 1759ft 99kts
05-Jan-18 12:33 34.172804 -118.379549 224 3139ft 92kts
05-Jan-18 12:34 34.161646 -118.397661 255 4319ft 88kts
05-Jan-18 12:35 34.165659 -118.418734 330 5413ft 84kts
05-Jan-18 12:36 34.185968 -118.430245 352 6386ft 94kts
05-Jan-18 12:37 34.229744 -118.432544 21 6503ft 171kts
05-Jan-18 12:38 34.264354 -118.417486 21 7133ft 164kts
05-Jan-18 12:39 34.304173 -118.400242 15 8098ft 144kts
05-Jan-18 12:40 34.340379 -118.384835 14 9154ft 136kts
05-Jan-18 12:41 34.376263 -118.369558 13 10239ft 139kts
05-Jan-18 12:42 34.414208 -118.353393 14 10911ft 165kts
05-Jan-18 12:43 34.460221 -118.333186 24 10897ft 185kts
05-Jan-18 12:44 34.493385 -118.284927 50 11026ft 190kts
05-Jan-18 12:45 34.525385 -118.233906 51 11023ft 192kts
05-Jan-18 12:46 34.557370 -118.182675 51 11023ft 191kts
05-Jan-18 12:47 34.589197 -118.131707 51 11025ft 191kts
05-Jan-18 12:48 34.620994 -118.080510 50 11028ft 190kts
05-Jan-18 12:49 34.643072 -118.023698 62 11020ft 191kts
05-Jan-18 12:50 34.645676 -117.961552 91 11066ft 188kts
05-Jan-18 12:51 34.649272 -117.897423 86 11017ft 191kts
05-Jan-18 12:52 34.656245 -117.833648 80 11012ft 191kts
05-Jan-18 12:53 34.664641 -117.769861 81 11015ft 191kts
05-Jan-18 12:54 34.679889 -117.708466 69 11019ft 191kts
05-Jan-18 12:55 34.697354 -117.647363 69 11023ft 191kts
05-Jan-18 12:56 34.712545 -117.585787 71 11029ft 191kts
05-Jan-18 12:57 34.728008 -117.523983 71 11028ft 191kts
05-Jan-18 12:58 34.743546 -117.462319 71 11028ft 191kts
05-Jan-18 12:59 34.759101 -117.400499 71 11028ft 191kts
05-Jan-18 13:00 34.774453 -117.339354 71 11027ft 191kts
05-Jan-18 13:01 34.789883 -117.277763 71 11025ft 190kts
05-Jan-18 13:02 34.805262 -117.216218 71 11024ft 190kts
05-Jan-18 13:03 34.820645 -117.154507 71 11022ft 190kts
05-Jan-18 13:04 34.835967 -117.092890 71 11021ft 190kts
05-Jan-18 13:05 34.851126 -117.031783 71 11019ft 189kts
05-Jan-18 13:06 34.866273 -116.970588 71 11018ft 188kts
05-Jan-18 13:07 34.881232 -116.910013 71 11037ft 186kts
05-Jan-18 13:08 34.896054 -116.849843 71 11037ft 185kts
05-Jan-18 13:09 34.910881 -116.789512 71 11037ft 186kts
05-Jan-18 13:10 34.925764 -116.728802 71 11037ft 187kts
05-Jan-18 13:11 34.940627 -116.668029 71 11037ft 187kts
05-Jan-18 13:12 34.955502 -116.607064 71 11038ft 188kts
05-Jan-18 13:13 34.975642 -116.548597 59 11040ft 188kts
05-Jan-18 13:14 35.000718 -116.492366 59 11042ft 189kts
05-Jan-18 13:15 35.008268 -116.475385 59 11043ft 189kts
05-Jan-18 13:16 35.033417 -116.418729 59 11046ft 191kts
05-Jan-18 13:17 35.058734 -116.361596 59 11048ft 192kts
05-Jan-18 13:18 35.083809 -116.304926 59 11045ft 191kts
05-Jan-18 13:19 35.108934 -116.248044 59 11045ft 191kts
05-Jan-18 13:20 35.134108 -116.190981 60 11055ft 191kts
05-Jan-18 13:21 35.159169 -116.134026 60 11054ft 191kts
05-Jan-18 13:22 35.184289 -116.076865 60 11054ft 191kts
05-Jan-18 13:23 35.209361 -116.019720 60 11055ft 191kts
05-Jan-18 13:24 35.234394 -115.962566 60 11055ft 191kts
05-Jan-18 13:25 35.259482 -115.905189 60 11056ft 191kts
05-Jan-18 13:26 35.284444 -115.848005 60 11060ft 191kts
05-Jan-18 13:27 35.309379 -115.790787 59 11065ft 191kts
05-Jan-18 13:28 35.344153 -115.742499 44 11069ft 189kts
05-Jan-18 13:29 35.379841 -115.695061 44 11072ft 189kts
05-Jan-18 13:30 35.415452 -115.647533 44 11058ft 190kts
05-Jan-18 13:31 35.452215 -115.598344 44 10633ft 198kts
05-Jan-18 13:32 35.489369 -115.548580 43 10241ft 197kts
05-Jan-18 13:33 35.525741 -115.499830 43 10047ft 189kts
05-Jan-18 13:34 35.560844 -115.452778 43 10047ft 186kts
05-Jan-18 13:35 35.595592 -115.406101 43 10047ft 184kts
05-Jan-18 13:36 35.630104 -115.359658 43 10047ft 184kts
05-Jan-18 13:37 35.664228 -115.313642 44 10045ft 184kts
05-Jan-18 13:38 35.698574 -115.267307 44 10045ft 184kts
05-Jan-18 13:39 35.732879 -115.220964 44 10045ft 184kts
05-Jan-18 13:40 35.767297 -115.174398 44 10042ft 184kts
05-Jan-18 13:41 35.802177 -115.128628 43 10035ft 184kts
05-Jan-18 13:42 35.836344 -115.082019 43 10028ft 183kts
05-Jan-18 13:43 35.870516 -115.035306 43 10021ft 183kts
05-Jan-18 13:44 35.904450 -114.988873 43 10014ft 183kts
05-Jan-18 13:45 35.949468 -114.990080 341 9662ft 178kts
05-Jan-18 13:46 35.995737 -115.005513 341 8898ft 182kts
05-Jan-18 13:47 36.042371 -115.021944 341 8130ft 181kts
05-Jan-18 13:48 36.084825 -115.050483 306 7399ft 173kts
05-Jan-18 13:49 36.073802 -115.092133 248 6118ft 139kts
05-Jan-18 13:50 36.073240 -115.133827 298 4421ft 128kts
05-Jan-18 13:51 36.097945 -115.130844 32 3440ft 121kts
05-Jan-18 13:52 36.117529 -115.128215 297 2999ft 90kts
05-Jan-18 13:53 36.113756 -115.148402 203 2509ft 98kts
05-Jan-18 13:54 36.095260 -115.158980 204 2100ft 80kts
05-Jan-18 13:55 36.089358 -115.163387 294 2129ft 0kts
05-Jan-18 13:56 36.089358 -115.163388 293 2129ft 0kts
05-Jan-18 13:57 36.089437 -115.164085 298 2132ft 10kts
05-Jan-18 13:58 36.085786 -115.166744 204 2150ft 18kts
05-Jan-18 13:59 36.081495 -115.169445 250 2166ft 8kts
05-Jan-18 14:00 36.081585 -115.170983 335 2169ft 0kts
05-Jan-18 14:01 36.081585 -115.170983 335 2169ft 0kts
05-Jan-18 14:02 36.081585 -115.170983 335 2169ft 0kts
05-Jan-18 14:03 36.081585 -115.170983 335 2169ft 0kts

Navigation Log

Ident Type
Flight plan parsing failed, navigation log unavailable